createdAt,value
2018-12-10T00:00:26.328Z,11.77
2018-12-10T00:02:59.969Z,10.50
2018-12-10T00:05:34.950Z,16.07
2018-12-10T00:08:03.229Z,14.73
2018-12-10T00:10:31.463Z,10.33
2018-12-10T00:12:59.698Z,13.93
2018-12-10T00:15:27.978Z,13.43
2018-12-10T00:17:56.261Z,16.57
2018-12-10T00:20:24.485Z,14.33
2018-12-10T00:22:52.776Z,15.27
2018-12-10T00:25:21.004Z,14.93
2018-12-10T00:27:49.237Z,16.33
2018-12-10T00:30:17.479Z,15.37
2018-12-10T00:32:45.725Z,20.57
2018-12-10T00:35:13.947Z,13.67
2018-12-10T00:37:42.319Z,19.97
2018-12-10T00:40:10.679Z,14.17
2018-12-10T00:42:38.943Z,18.13
2018-12-10T00:45:07.309Z,13.70
2018-12-10T00:47:35.572Z,14.73
2018-12-10T00:50:04.176Z,14.10
2018-12-10T00:52:32.449Z,17.23
2018-12-10T00:55:00.847Z,17.63
2018-12-10T00:57:34.642Z,16.07
2018-12-10T01:00:02.926Z,17.63
2018-12-10T01:02:31.164Z,15.93
2018-12-10T01:04:59.483Z,12.80
2018-12-10T01:07:27.713Z,15.60
2018-12-10T01:09:55.963Z,11.20
2018-12-10T01:12:24.162Z,13.90
2018-12-10T01:14:53.440Z,16.70
2018-12-10T01:17:21.680Z,14.83
2018-12-10T01:19:49.883Z,19.07
2018-12-10T01:22:18.129Z,19.30
2018-12-10T01:24:46.337Z,14.83
2018-12-10T01:27:14.646Z,15.27
2018-12-10T01:29:42.848Z,18.43
2018-12-10T01:32:11.074Z,22.13
2018-12-10T01:34:39.337Z,15.90
2018-12-10T01:37:07.567Z,14.60
2018-12-10T01:39:35.834Z,19.73
2018-12-10T01:42:04.073Z,14.37
2018-12-10T01:44:32.312Z,17.97
2018-12-10T01:47:00.551Z,16.77
2018-12-10T01:49:28.809Z,9.60
2018-12-10T01:51:57.071Z,10.80
2018-12-10T01:54:25.482Z,16.17
2018-12-10T01:56:53.757Z,15.60
2018-12-10T01:59:22.024Z,9.00
2018-12-10T02:01:50.323Z,18.13
2018-12-10T02:04:18.558Z,12.17
2018-12-10T02:06:46.783Z,10.60
2018-12-10T02:09:15.112Z,15.43
2018-12-10T02:11:43.346Z,12.53
2018-12-10T02:14:11.570Z,15.47
2018-12-10T02:16:39.849Z,11.13
2018-12-10T02:19:08.089Z,9.93
2018-12-10T02:21:36.356Z,10.97
2018-12-10T02:24:04.717Z,11.20
2018-12-10T02:26:32.952Z,11.17
2018-12-10T02:29:06.499Z,13.97
2018-12-10T02:31:34.738Z,9.73
2018-12-10T02:34:02.981Z,9.63
2018-12-10T02:36:31.271Z,12.00
2018-12-10T02:38:59.518Z,8.90
2018-12-10T02:41:27.721Z,8.50
2018-12-10T02:43:56.004Z,8.07
2018-12-10T02:46:24.262Z,12.37
2018-12-10T02:48:52.507Z,9.27
2018-12-10T02:51:20.741Z,9.50
2018-12-10T02:53:48.967Z,13.27
2018-12-10T02:56:17.310Z,16.97
2018-12-10T02:58:45.687Z,10.23
2018-12-10T03:01:14.013Z,11.00
2018-12-10T03:03:42.262Z,12.97
2018-12-10T03:06:10.591Z,13.43
2018-12-10T03:08:38.843Z,11.07
2018-12-10T03:11:07.213Z,9.17
2018-12-10T03:13:36.525Z,8.33
2018-12-10T03:16:08.658Z,13.90
2018-12-10T03:18:36.974Z,6.03
2018-12-10T03:21:05.205Z,8.53
2018-12-10T03:23:33.447Z,6.70
2018-12-10T03:26:01.812Z,8.40
2018-12-10T03:28:30.134Z,7.40
2018-12-10T03:30:58.346Z,10.50
2018-12-10T03:33:26.686Z,7.73
2018-12-10T03:35:55.127Z,9.93
2018-12-10T03:38:23.378Z,8.87
2018-12-10T03:40:51.639Z,8.23
2018-12-10T03:43:20.016Z,8.67
2018-12-10T03:45:48.256Z,12.33
2018-12-10T03:48:16.564Z,9.40
2018-12-10T03:50:44.833Z,12.33
2018-12-10T03:53:13.084Z,7.70
2018-12-10T03:55:41.346Z,11.50
2018-12-10T03:58:09.599Z,13.80
2018-12-10T04:00:37.828Z,9.30
2018-12-10T04:03:06.056Z,12.37
2018-12-10T04:05:34.250Z,10.40
2018-12-10T04:08:02.485Z,10.53
2018-12-10T04:10:30.782Z,14.37
2018-12-10T04:12:59.087Z,12.50
2018-12-10T04:15:27.593Z,14.50
2018-12-10T04:17:56.056Z,12.87
2018-12-10T04:20:24.396Z,8.17
2018-12-10T04:22:52.741Z,13.30
2018-12-10T04:25:20.953Z,12.77
2018-12-10T04:27:49.188Z,14.73
2018-12-10T04:30:17.495Z,22.10
2018-12-10T04:32:45.725Z,23.07
2018-12-10T04:35:14.066Z,21.00
2018-12-10T04:37:42.378Z,15.70
2018-12-10T04:40:10.709Z,20.13
2018-12-10T04:42:38.922Z,18.83
2018-12-10T04:45:07.437Z,21.80
2018-12-10T04:47:35.748Z,18.20
2018-12-10T04:50:04.349Z,14.60
2018-12-10T04:52:32.605Z,14.73
2018-12-10T04:55:00.858Z,16.13
2018-12-10T04:57:29.258Z,14.30
2018-12-10T04:59:57.461Z,18.23
2018-12-10T05:02:25.820Z,18.73
2018-12-10T05:04:54.053Z,17.70
2018-12-10T05:07:22.320Z,15.03
2018-12-10T05:09:50.660Z,17.10
2018-12-10T05:12:18.939Z,25.00
2018-12-10T05:14:47.166Z,16.23
2018-12-10T05:18:34.869Z,20.37
2018-12-10T05:21:03.074Z,14.63
2018-12-10T05:23:31.383Z,20.37
2018-12-10T05:25:59.610Z,16.77
2018-12-10T05:28:34.933Z,18.67
2018-12-10T05:31:03.199Z,16.90
2018-12-10T05:33:31.423Z,17.37
2018-12-10T05:35:59.701Z,12.27
2018-12-10T05:38:28.012Z,16.23
2018-12-10T05:40:56.390Z,17.87
2018-12-10T05:43:24.590Z,12.87
2018-12-10T05:45:52.820Z,11.67
2018-12-10T05:48:21.012Z,15.60
2018-12-10T05:50:49.248Z,12.10
2018-12-10T05:53:17.513Z,21.50
2018-12-10T05:58:38.630Z,17.23
2018-12-10T06:01:07.032Z,15.10
2018-12-10T06:03:35.346Z,16.40
2018-12-10T06:06:03.558Z,15.30
2018-12-10T06:08:31.879Z,12.50
2018-12-10T06:11:00.094Z,15.13
2018-12-10T06:13:28.354Z,13.33
2018-12-10T06:15:56.713Z,14.27
2018-12-10T06:18:24.939Z,12.70
2018-12-10T06:20:53.209Z,14.27
2018-12-10T06:23:21.600Z,12.23
2018-12-10T06:25:49.905Z,15.97
2018-12-10T06:28:18.570Z,20.33
2018-12-10T06:30:46.798Z,16.33
2018-12-10T06:33:15.115Z,21.80
2018-12-10T06:35:43.429Z,10.13
2018-12-10T06:38:17.845Z,19.20
2018-12-10T06:40:46.090Z,14.60
2018-12-10T06:43:17.245Z,19.80
2018-12-10T06:45:45.588Z,12.30
2018-12-10T06:48:13.813Z,12.77
2018-12-10T06:50:42.045Z,9.97
2018-12-10T06:53:10.445Z,14.30
2018-12-10T06:55:38.776Z,14.57
2018-12-10T06:58:07.238Z,18.60
2018-12-10T07:00:35.569Z,16.70
2018-12-10T07:03:03.945Z,17.83
2018-12-10T07:05:32.277Z,23.17
2018-12-10T07:08:00.511Z,17.33
2018-12-10T07:10:28.821Z,22.90
2018-12-10T07:12:57.077Z,21.73
2018-12-10T07:15:25.469Z,18.60
2018-12-10T07:17:53.740Z,15.77
2018-12-10T07:20:21.950Z,18.83
2018-12-10T07:22:50.246Z,16.27
2018-12-10T07:25:18.473Z,17.83
2018-12-10T07:27:46.858Z,18.73
2018-12-10T07:30:15.088Z,20.80
2018-12-10T07:32:43.342Z,15.63
2018-12-10T07:35:11.640Z,18.07
2018-12-10T07:37:39.902Z,18.20
2018-12-10T07:40:08.222Z,17.57
2018-12-10T07:42:36.488Z,18.60
2018-12-10T07:45:05.359Z,13.07
2018-12-10T07:47:33.601Z,14.50
2018-12-10T07:50:01.867Z,14.07
2018-12-10T07:52:30.228Z,15.50
2018-12-10T07:54:58.552Z,16.83
2018-12-10T07:57:26.878Z,20.07
2018-12-10T07:59:55.439Z,18.30
2018-12-10T08:02:23.647Z,15.87
2018-12-10T08:04:51.933Z,13.07
2018-12-10T08:07:20.224Z,14.93
2018-12-10T08:09:48.450Z,17.47
2018-12-10T08:12:16.731Z,22.13
2018-12-10T08:14:45.120Z,17.57
2018-12-10T08:17:13.469Z,19.47
2018-12-10T08:19:41.742Z,17.37
2018-12-10T08:22:10.048Z,15.20
2018-12-10T08:24:38.276Z,16.40
2018-12-10T08:27:09.650Z,19.23
2018-12-10T08:29:36.729Z,12.67
2018-12-10T08:32:05.006Z,21.37
2018-12-10T08:34:41.226Z,16.87
2018-12-10T08:37:03.572Z,20.27
2018-12-10T08:39:31.848Z,19.40
2018-12-10T08:42:00.092Z,19.10
2018-12-10T08:44:28.480Z,21.13
2018-12-10T08:46:56.740Z,18.13
2018-12-10T08:49:25.010Z,14.83
2018-12-10T08:51:53.272Z,17.20
2018-12-10T08:54:21.493Z,26.07
2018-12-10T08:56:49.746Z,17.97
2018-12-10T08:59:18.014Z,15.27
2018-12-10T09:01:46.260Z,16.73
2018-12-10T09:04:14.623Z,12.03
2018-12-10T09:06:43.058Z,19.73
2018-12-10T09:09:11.412Z,13.27
2018-12-10T09:11:39.655Z,10.87
2018-12-10T09:14:20.417Z,10.83
2018-12-10T09:16:48.691Z,14.30
2018-12-10T09:19:17.017Z,13.43
2018-12-10T09:21:45.266Z,11.17
2018-12-10T09:24:13.479Z,12.30
2018-12-10T09:26:42.272Z,15.23
2018-12-10T09:29:10.532Z,11.77
2018-12-10T09:31:38.736Z,13.83
2018-12-10T09:34:06.943Z,9.10
2018-12-10T09:36:35.256Z,16.57
2018-12-10T09:39:05.391Z,18.37
2018-12-10T09:41:33.626Z,14.63
2018-12-10T09:44:01.923Z,12.77
2018-12-10T09:46:30.202Z,16.93
2018-12-10T09:48:58.483Z,16.60
2018-12-10T09:51:26.724Z,14.67
2018-12-10T09:53:55.060Z,13.57
2018-12-10T09:56:23.406Z,11.03
2018-12-10T09:58:51.608Z,10.17
2018-12-10T10:01:19.861Z,12.60
2018-12-10T10:03:48.136Z,13.87
2018-12-10T10:06:16.462Z,12.23
2018-12-10T10:08:44.837Z,11.30
2018-12-10T10:11:13.151Z,14.07
2018-12-10T10:13:41.384Z,9.83
2018-12-10T10:16:09.589Z,19.57
2018-12-10T10:18:37.871Z,12.00
2018-12-10T10:21:11.313Z,12.40
2018-12-10T10:23:36.445Z,18.83
2018-12-10T10:26:04.856Z,13.27
2018-12-10T10:28:33.178Z,16.83
2018-12-10T10:31:01.553Z,16.20
2018-12-10T10:33:32.500Z,20.03
2018-12-10T10:36:00.026Z,17.60
2018-12-10T10:38:28.316Z,19.30
2018-12-10T10:40:56.583Z,21.43
2018-12-10T10:43:24.871Z,19.33
2018-12-10T10:45:53.207Z,19.13
2018-12-10T10:48:21.479Z,15.60
2018-12-10T10:50:49.720Z,11.97
2018-12-10T10:53:17.990Z,6.33
2018-12-10T10:55:46.300Z,5.50
2018-12-10T10:58:14.661Z,8.53
2018-12-10T11:00:48.180Z,7.77
2018-12-10T11:03:21.726Z,4.90
2018-12-10T11:05:50.050Z,10.27
2018-12-10T11:08:18.333Z,8.67
2018-12-10T11:10:46.569Z,9.50
2018-12-10T11:13:14.888Z,11.20
2018-12-10T11:15:43.142Z,11.40
2018-12-10T11:18:11.553Z,8.10
2018-12-10T11:20:39.930Z,14.27
2018-12-10T11:23:08.242Z,8.50
2018-12-10T11:25:36.610Z,12.17
2018-12-10T11:28:05.005Z,16.00
2018-12-10T11:30:33.269Z,9.70
2018-12-10T11:33:01.543Z,14.43
2018-12-10T11:35:29.763Z,12.17
2018-12-10T11:37:58.233Z,18.80
2018-12-10T11:40:26.554Z,12.93
2018-12-10T11:42:54.794Z,15.60
2018-12-10T11:45:23.185Z,21.00
2018-12-10T11:47:51.448Z,7.20
2018-12-10T11:50:19.854Z,10.57
2018-12-10T11:52:48.305Z,8.20
2018-12-10T11:55:15.631Z,10.27
2018-12-10T11:57:43.895Z,9.43
2018-12-10T12:00:12.262Z,10.27
2018-12-10T12:02:40.726Z,13.00
2018-12-10T12:05:09.157Z,10.10
2018-12-10T12:07:37.551Z,11.97
2018-12-10T12:10:07.865Z,8.77
2018-12-10T12:12:36.187Z,11.83
2018-12-10T12:15:05.568Z,8.27
2018-12-10T12:17:33.786Z,8.37
2018-12-10T12:20:02.089Z,7.40
2018-12-10T12:22:30.408Z,11.77
2018-12-10T12:25:05.158Z,9.40
2018-12-10T12:27:33.438Z,11.20
2018-12-10T12:30:01.748Z,9.80
2018-12-10T12:32:30.122Z,11.93
2018-12-10T12:35:05.084Z,8.70
2018-12-10T12:37:33.348Z,6.97
2018-12-10T12:40:01.573Z,9.37
2018-12-10T12:42:29.812Z,6.73
2018-12-10T12:44:58.058Z,8.77
2018-12-10T12:47:26.424Z,8.77
2018-12-10T12:49:54.667Z,6.90
2018-12-10T12:52:22.981Z,4.83
2018-12-10T12:54:51.243Z,6.97
2018-12-10T12:57:19.653Z,9.33
2018-12-10T12:59:47.985Z,8.63
2018-12-10T13:02:16.404Z,8.87
2018-12-10T13:04:44.656Z,7.73
2018-12-10T13:07:12.891Z,8.20
2018-12-10T13:09:41.134Z,8.93
2018-12-10T13:12:09.541Z,6.13
2018-12-10T13:14:37.974Z,4.80
2018-12-10T13:17:06.764Z,6.40
2018-12-10T13:19:35.105Z,5.07
2018-12-10T13:22:10.056Z,6.43
2018-12-10T13:24:38.354Z,7.77
2018-12-10T13:27:06.643Z,7.73
2018-12-10T13:29:34.949Z,6.60
2018-12-10T13:32:03.484Z,7.43
2018-12-10T13:34:31.766Z,7.50
2018-12-10T13:36:59.996Z,8.83
2018-12-10T13:39:28.276Z,8.70
2018-12-10T13:41:56.521Z,7.87
2018-12-10T13:44:24.756Z,9.30
2018-12-10T13:46:53.341Z,5.90
2018-12-10T13:49:21.722Z,10.57
2018-12-10T13:51:49.971Z,4.47
2018-12-10T13:54:18.202Z,7.53
2018-12-10T13:56:46.530Z,7.23
2018-12-10T13:59:14.879Z,13.93
2018-12-10T14:01:43.121Z,10.93
2018-12-10T14:04:15.953Z,10.03
2018-12-10T14:06:44.221Z,11.70
2018-12-10T14:09:12.607Z,8.57
2018-12-10T14:11:42.140Z,7.07
2018-12-10T14:14:10.445Z,9.77
2018-12-10T14:16:38.684Z,6.90
2018-12-10T14:19:06.945Z,7.57
2018-12-10T14:21:35.230Z,6.93
2018-12-10T14:24:03.486Z,5.93
2018-12-10T14:26:31.789Z,11.03
2018-12-10T14:29:00.024Z,6.90
2018-12-10T14:31:28.262Z,11.23
2018-12-10T14:34:00.735Z,6.93
2018-12-10T14:36:29.048Z,7.17
2018-12-10T14:38:57.431Z,6.07
2018-12-10T14:41:25.649Z,6.77
2018-12-10T14:43:53.900Z,8.30
2018-12-10T14:46:22.204Z,3.80
2018-12-10T14:48:50.490Z,7.33
2018-12-10T14:51:18.840Z,4.53
2018-12-10T14:53:47.089Z,8.17
2018-12-10T14:56:15.452Z,7.97
2018-12-10T14:58:43.754Z,5.93
2018-12-10T15:01:12.002Z,7.70
2018-12-10T15:03:40.266Z,4.17
2018-12-10T15:06:08.509Z,4.83
2018-12-10T15:08:36.723Z,6.90
2018-12-10T15:11:05.103Z,6.83
2018-12-10T15:13:33.388Z,5.13
2018-12-10T15:16:01.952Z,9.03
2018-12-10T15:18:30.272Z,7.57
2018-12-10T15:20:58.837Z,8.50
2018-12-10T15:23:27.231Z,2.93
2018-12-10T15:25:56.240Z,5.07
2018-12-10T15:28:24.622Z,6.17
2018-12-10T15:30:52.954Z,5.53
2018-12-10T15:33:21.293Z,5.27
2018-12-10T15:35:49.517Z,5.53
2018-12-10T15:38:17.857Z,4.27
2018-12-10T15:40:46.108Z,4.93
2018-12-10T15:43:14.486Z,4.50
2018-12-10T15:45:42.837Z,5.37
2018-12-10T15:48:11.191Z,8.70
2018-12-10T15:50:39.441Z,7.57
2018-12-10T15:53:07.699Z,7.63
2018-12-10T15:55:37.022Z,9.47
2018-12-10T15:58:05.326Z,7.47
2018-12-10T16:00:33.828Z,11.43
2018-12-10T16:03:02.182Z,22.57
2018-12-10T16:05:30.526Z,15.10
2018-12-10T16:07:58.883Z,16.83
2018-12-10T16:10:27.246Z,15.10
2018-12-10T16:12:55.785Z,12.93
2018-12-10T16:15:24.184Z,18.17
2018-12-10T16:17:52.533Z,14.83
2018-12-10T16:20:20.843Z,17.07
2018-12-10T16:22:49.153Z,15.80
2018-12-10T16:25:17.413Z,12.57
2018-12-10T16:27:45.982Z,11.30
2018-12-10T16:30:14.609Z,15.03
2018-12-10T16:32:43.184Z,14.63
2018-12-10T16:35:11.434Z,12.00
2018-12-10T16:37:39.735Z,12.13
2018-12-10T16:40:08.156Z,16.33
2018-12-10T16:42:37.306Z,13.57
2018-12-10T16:52:02.510Z,10.80
2018-12-10T16:54:30.850Z,15.00
2018-12-10T16:56:59.576Z,11.07
2018-12-10T16:59:27.993Z,11.70
2018-12-10T17:01:56.316Z,13.87
2018-12-10T17:04:24.660Z,11.40
2018-12-10T17:06:53.461Z,9.40
2018-12-10T17:09:21.983Z,16.30
2018-12-10T17:11:50.660Z,16.07
2018-12-10T17:14:20.642Z,20.17
2018-12-10T17:19:41.227Z,20.90
2018-12-10T17:22:09.800Z,12.20
2018-12-10T17:24:38.052Z,14.67
2018-12-10T17:27:06.391Z,17.37
2018-12-10T17:29:35.224Z,17.03
2018-12-10T17:32:04.444Z,20.23
2018-12-10T17:34:32.772Z,14.80
2018-12-10T17:37:01.053Z,16.10
2018-12-10T17:39:29.409Z,12.53
2018-12-10T17:41:57.726Z,13.60
2018-12-10T17:44:26.011Z,15.30
2018-12-10T17:46:54.336Z,13.77
2018-12-10T17:49:22.883Z,17.03
2018-12-10T17:51:51.199Z,19.17
2018-12-10T17:54:19.533Z,14.20
2018-12-10T17:56:47.906Z,15.90
2018-12-10T17:59:16.247Z,16.20
2018-12-10T18:04:37.804Z,20.80
2018-12-10T18:07:06.700Z,24.77
2018-12-10T18:09:34.936Z,25.30
2018-12-10T18:12:03.967Z,20.10
2018-12-10T18:14:32.678Z,24.60
2018-12-10T18:17:01.545Z,20.07
2018-12-10T18:19:30.042Z,19.87
2018-12-10T18:21:58.372Z,26.00
2018-12-10T18:24:26.703Z,21.50
2018-12-10T18:26:54.960Z,22.37
2018-12-10T18:29:23.356Z,25.43
2018-12-10T18:31:51.600Z,26.33
2018-12-10T18:34:19.916Z,23.63
2018-12-10T18:36:48.175Z,27.13
2018-12-10T18:39:16.456Z,24.40
2018-12-10T18:41:44.786Z,19.87
2018-12-10T18:44:13.096Z,18.67
2018-12-10T18:46:41.430Z,17.90
2018-12-10T18:49:09.774Z,16.73
2018-12-10T18:51:38.084Z,16.17
2018-12-10T18:54:06.394Z,12.10
2018-12-10T18:56:34.802Z,13.13
2018-12-10T18:59:03.048Z,14.53
2018-12-10T19:01:31.322Z,9.60
2018-12-10T19:04:00.314Z,12.27
2018-12-10T19:06:29.023Z,17.30
2018-12-10T19:08:57.608Z,19.43
2018-12-10T19:11:26.028Z,15.80
2018-12-10T19:13:54.289Z,14.07
2018-12-10T19:16:22.571Z,19.47
2018-12-10T19:18:50.963Z,21.03
2018-12-10T19:21:19.242Z,20.43
2018-12-10T19:23:47.679Z,16.27
2018-12-10T19:26:15.971Z,23.10
2018-12-10T19:28:44.495Z,21.30
2018-12-10T19:31:12.913Z,20.40
2018-12-10T19:33:41.209Z,22.23
2018-12-10T19:36:09.581Z,15.57
2018-12-10T19:38:37.865Z,20.73
2018-12-10T19:41:06.296Z,17.13
2018-12-10T19:43:34.641Z,18.23
2018-12-10T19:46:03.174Z,18.23
2018-12-10T19:48:31.622Z,18.77
2018-12-10T19:51:00.163Z,17.63
2018-12-10T19:53:28.515Z,20.27
2018-12-10T19:55:56.977Z,16.87
2018-12-10T19:58:25.287Z,18.53
2018-12-10T20:00:53.596Z,25.30
2018-12-10T20:03:22.073Z,22.70
2018-12-10T20:05:55.855Z,20.67
2018-12-10T20:08:24.241Z,16.87
2018-12-10T20:10:52.688Z,18.20
2018-12-10T20:13:21.058Z,18.47
2018-12-10T20:15:49.426Z,27.23
2018-12-10T20:18:17.882Z,20.53
2018-12-10T20:20:46.310Z,21.47
2018-12-10T20:23:15.638Z,19.90
2018-12-10T20:25:44.110Z,25.80
2018-12-10T20:28:12.550Z,22.27
2018-12-10T20:30:40.999Z,22.10
2018-12-10T20:33:09.347Z,18.50
2018-12-10T20:35:37.947Z,15.73
2018-12-10T20:38:06.277Z,21.87
2018-12-10T20:40:35.025Z,23.43
2018-12-10T20:43:04.051Z,20.10
2018-12-10T20:45:32.501Z,15.63
2018-12-10T20:48:01.220Z,21.20
2018-12-10T20:50:29.785Z,14.97
2018-12-10T20:52:58.192Z,19.30
2018-12-10T20:55:26.584Z,16.37
2018-12-10T20:57:54.939Z,23.87
2018-12-10T21:00:23.690Z,18.77
2018-12-10T21:02:58.948Z,21.87
2018-12-10T21:05:27.692Z,21.63
2018-12-10T21:07:56.876Z,22.50
2018-12-10T21:10:25.263Z,26.60
2018-12-10T21:12:53.647Z,21.93
2018-12-10T21:15:21.998Z,28.57
2018-12-10T21:17:50.325Z,24.60
2018-12-10T21:20:19.048Z,23.70
2018-12-10T21:22:47.561Z,25.53
2018-12-10T21:25:15.920Z,26.53
2018-12-10T21:27:44.547Z,19.57
2018-12-10T21:30:12.962Z,24.33
2018-12-10T21:32:41.282Z,25.90
2018-12-10T21:35:09.646Z,25.53
2018-12-10T21:37:38.050Z,22.70
2018-12-10T21:40:06.477Z,30.70
2018-12-10T21:42:38.926Z,23.90
2018-12-10T21:45:06.137Z,25.30
2018-12-10T21:47:34.444Z,25.83
2018-12-10T21:50:03.090Z,30.03
2018-12-10T21:52:31.424Z,21.97
2018-12-10T21:55:00.947Z,30.13
2018-12-10T21:57:29.508Z,27.00
2018-12-10T21:59:57.774Z,20.80
2018-12-10T22:02:26.045Z,22.50
2018-12-10T22:04:54.354Z,22.93
2018-12-10T22:07:22.717Z,21.33
2018-12-10T22:09:51.011Z,25.17
2018-12-10T22:12:37.442Z,22.13
2018-12-10T22:15:06.194Z,20.90
2018-12-10T22:17:34.538Z,28.73
2018-12-10T22:20:02.929Z,22.43
2018-12-10T22:22:37.721Z,25.83
2018-12-10T22:25:06.238Z,19.97
2018-12-10T22:27:34.509Z,26.60
2018-12-10T22:30:02.868Z,28.10
2018-12-10T22:32:31.223Z,23.50
2018-12-10T22:34:59.489Z,23.57
2018-12-10T22:37:27.759Z,26.47
2018-12-10T22:39:56.018Z,26.70
2018-12-10T22:42:24.276Z,23.43
2018-12-10T22:44:52.572Z,29.07
2018-12-10T22:47:20.894Z,21.47
2018-12-10T22:49:49.153Z,22.87
2018-12-10T22:52:17.475Z,24.10
2018-12-10T22:54:45.815Z,26.03
2018-12-10T22:57:14.195Z,18.40
2018-12-10T22:59:42.454Z,20.10
2018-12-10T23:02:10.766Z,23.17
2018-12-10T23:04:38.993Z,19.30
2018-12-10T23:07:08.330Z,29.60
2018-12-10T23:09:36.685Z,25.17
2018-12-10T23:12:05.059Z,26.73
2018-12-10T23:14:33.441Z,26.40
2018-12-10T23:17:01.707Z,25.73
2018-12-10T23:19:29.994Z,28.07
2018-12-10T23:21:58.234Z,28.17
2018-12-10T23:24:26.462Z,27.17
2018-12-10T23:27:01.345Z,23.70
2018-12-10T23:29:29.585Z,26.53
2018-12-10T23:31:57.810Z,23.30
2018-12-10T23:34:26.050Z,26.00
2018-12-10T23:36:54.312Z,21.97
2018-12-10T23:39:22.561Z,19.63
2018-12-10T23:41:50.904Z,22.03
2018-12-10T23:44:24.474Z,25.70
2018-12-10T23:46:52.726Z,20.70
2018-12-10T23:49:21.027Z,31.57
2018-12-10T23:51:49.275Z,27.07
2018-12-10T23:54:17.537Z,28.47
2018-12-10T23:56:45.806Z,25.37
2018-12-10T23:59:14.082Z,22.60
